Polaris Voyager — C6AP4 — position and weather

sailwx.info

Track history (hours):
 
Tides and Currents Weather Stations Pressure Air Temp Water Temp Dewpoint Dewpoint Depression Visibility Wind Speed Wind Dir Waves Ship Positions

Polaris Voyager

Last reported at 2017-Dec-11 17:00 UTC. Time now 2017-Dec-13 14:58 UTC.
Position N 33°21' W 119°15'.

Length 276 m; draft 11.3 m.

Type: Ship (hazmat cat A). MMSI: 311000112.

Date/timePositionNaut miles runAvg speedWind from/ knotsBaromVisibWave heightAir tempDewpointWater temp
2017-Dec-11 17:00N 33°21' W 119°15'815.5
2017-Dec-11 16:30N 33°16' W 119°09'815.2
2017-Dec-11 16:00N 33°15' W 118°59'713.3
2017-Dec-11 15:30N 33°14' W 118°51'611.8
2017-Dec-11 15:00N 33°14' W 118°44'611.7
2017-Dec-11 14:30N 33°13' W 118°38'712.0
2017-Dec-11 13:56N 33°10' W 118°30'1011.9
2017-Dec-11 13:05N 33°06' W 118°19'112.1
2017-Dec-11 12:59N 33°05' W 118°18'611.9
2017-Dec-11 12:28N 33°06' W 118°10'511.8
2017-Dec-11 12:00N 33°07' W 118°04'611.9
2017-Dec-11 11:30N 33°08' W 117°57'3 6.6
2017-Dec-11 11:00N 33°09' W 117°53'1 1.1
2017-Dec-11 10:30N 33°08' W 117°53'1 1.8
2017-Dec-11 10:00N 33°07' W 117°52'1 1.8
2017-Dec-11 09:30N 33°07' W 117°51'1 1.8
2017-Dec-11 09:00N 33°06' W 117°51'1 1.5
2017-Dec-11 08:30N 33°05' W 117°50'1 1.4
2017-Dec-11 08:00N 33°05' W 117°50'1 1.5
2017-Dec-11 07:30N 33°04' W 117°50'1 1.5
2017-Dec-11 07:00N 33°03' W 117°49'1 1.4
2017-Dec-11 06:30N 33°03' W 117°48'1 1.4
2017-Dec-11 06:00N 33°02' W 117°48'1 1.5
2017-Dec-11 05:30N 33°02' W 117°47'1 1.7
2017-Dec-11 05:00N 33°01' W 117°47'1 1.8
2017-Dec-11 04:30N 33°00' W 117°46'1 1.1
2017-Dec-11 04:00N 32°60' W 117°46'0 0.9
2017-Dec-11 03:30N 32°60' W 117°45'0 1.0
2017-Dec-11 03:00N 32°59' W 117°45'0 1.0
2017-Dec-11 02:30N 32°59' W 117°45'0 1.0
2017-Dec-11 02:00N 32°58' W 117°44'0 0.9
2017-Dec-11 01:30N 32°58' W 117°44'0 0.5
2017-Dec-11 01:00N 32°58' W 117°44'0 0.5
2017-Dec-11 00:30N 32°58' W 117°44'0 0.5
2017-Dec-11 00:00N 32°57' W 117°44'0 0.6
2017-Dec-10 23:30N 32°57' W 117°44'0 0.7
2017-Dec-10 23:00N 32°57' W 117°44'0 0.7
2017-Dec-10 22:30N 32°56' W 117°43'0 0.6
2017-Dec-10 22:00N 32°56' W 117°43'0 0.9
2017-Dec-10 21:30N 32°56' W 117°43'1 1.6
2017-Dec-10 21:00N 32°55' W 117°43'1 1.5
2017-Dec-10 20:30N 32°55' W 117°43'1 1.2
2017-Dec-10 20:00N 32°55' W 117°44'1 1.6
2017-Dec-10 19:30N 32°55' W 117°45'1 1.3
2017-Dec-10 19:00N 32°55' W 117°46'0 0.9
2017-Dec-10 18:30N 32°55' W 117°46'0 0.7
2017-Dec-10 18:00N 32°55' W 117°47'0 0.6
2017-Dec-10 17:30N 32°55' W 117°47'0 0.4
2017-Dec-10 17:00N 32°56' W 117°47'0 0.6
2017-Dec-10 16:30N 32°56' W 117°47'0 0.6
2017-Dec-10 16:00N 32°56' W 117°47'0 0.6
2017-Dec-10 15:30N 32°56' W 117°48'0 0.5
2017-Dec-10 15:00N 32°56' W 117°48'0 0.5
2017-Dec-10 14:30N 32°57' W 117°48'0 0.5
2017-Dec-10 14:00N 32°57' W 117°48'0 0.6
2017-Dec-10 13:30N 32°57' W 117°48'1 1.1
2017-Dec-10 13:00N 32°58' W 117°49'1 2.3
2017-Dec-10 12:30N 32°58' W 117°50'1 2.8
2017-Dec-10 12:00N 32°59' W 117°51'2 3.8
2017-Dec-10 11:30N 33°01' W 117°52'3 5.3
2017-Dec-10 11:00N 33°03' W 117°53'2 4.9
2017-Dec-10 10:30N 33°06' W 117°55'2 5.0
2017-Dec-10 10:00N 33°08' W 117°57'3 5.6
2017-Dec-10 09:30N 33°10' W 117°59'2 3.8
2017-Dec-10 09:00N 33°11' W 118°01'0 0.6
2017-Dec-10 08:30N 33°11' W 118°00'0 0.3
2017-Dec-10 08:00N 33°11' W 118°00'3 5.1
2017-Dec-10 07:30N 33°13' W 118°02'611.7
2017-Dec-10 07:00N 33°17' W 118°07'611.7
2017-Dec-10 06:30N 33°22' W 118°11'1611.7
2017-Dec-10 05:08N 33°33' W 118°25'211.9
2017-Dec-10 04:57N 33°34' W 118°27'611.5
2017-Dec-10 04:28N 33°36' W 118°33'611.8
2017-Dec-10 04:00N 33°36' W 118°40'611.8
2017-Dec-10 03:30N 33°37' W 118°47'611.6
2017-Dec-10 03:00N 33°37' W 118°54'611.7
2017-Dec-10 02:30N 33°38' W 119°01'612.1
2017-Dec-10 02:00N 33°38' W 119°08'815.7
2017-Dec-10 01:29N 33°38' W 119°18'714.5
2017-Dec-10 01:00N 33°38' W 119°26'510.1
2017-Dec-10 00:31N 33°37' W 119°32'714.8
2017-Dec-10 00:01N 33°37' W 119°41'815.1
2017-Dec-09 23:30N 33°37' W 119°50'714.8
2017-Dec-09 23:01N 33°36' W 119°59'714.5
2017-Dec-09 22:30N 33°36' W 120°08'714.5
2017-Dec-09 22:00N 33°39' W 120°16'714.8
2017-Dec-09 21:29N 33°43' W 120°24'814.8
2017-Dec-09 20:56N 33°47' W 120°33'614.6
2017-Dec-09 20:30N 33°50' W 120°39'714.8
2017-Dec-09 20:01N 33°54' W 120°46'612.1
2017-Dec-09 19:29N 33°59' W 120°52'2 4.8
2017-Dec-09 19:00N 34°01' W 120°53'3 6.0
2017-Dec-09 18:28N 34°04' W 120°54'1 1.3
2017-Dec-09 18:00N 34°03' W 120°55'4 9.0
2017-Dec-09 17:30N 34°07' W 120°58'714.5
2017-Dec-09 17:00N 34°13' W 121°02'714.9
2017-Dec-09 16:30N 34°19' W 121°07'714.8
2017-Dec-09 16:00N 34°25' W 121°13'815.0
2017-Dec-09 15:30N 34°32' W 121°16'714.9
2017-Dec-09 15:00N 34°39' W 121°21'815.4
2017-Dec-09 14:30N 34°45' W 121°25'815.2
2017-Dec-09 14:00N 34°52' W 121°30'815.1
2017-Dec-09 13:30N 34°58' W 121°35'714.6
2017-Dec-09 13:00N 35°05' W 121°39'714.8
2017-Dec-09 12:30N 35°11' W 121°44'714.8
2017-Dec-09 12:00N 35°17' W 121°49'714.8
2017-Dec-09 11:30N 35°24' W 121°53'714.8
2017-Dec-09 11:00N 35°30' W 121°58'714.7
2017-Dec-09 10:30N 35°36' W 122°02'714.7
2017-Dec-09 10:00N 35°43' W 122°07'714.3
2017-Dec-09 09:31N 35°49' W 122°11'714.2
2017-Dec-09 09:01N 35°55' W 122°16'714.5
2017-Dec-09 08:30N 36°01' W 122°21'714.8
2017-Dec-09 08:00N 36°08' W 122°25'815.1
2017-Dec-09 07:30N 36°14' W 122°30'815.3
2017-Dec-09 07:00N 36°21' W 122°34'815.3
2017-Dec-09 06:30N 36°28' W 122°37'815.2
2017-Dec-09 06:00N 36°35' W 122°41'815.3
2017-Dec-09 05:30N 36°42' W 122°45'815.4
2017-Dec-09 05:00N 36°49' W 122°48'815.4
2017-Dec-09 04:30N 36°56' W 122°52'815.6
2017-Dec-09 04:00N 37°04' W 122°55'1215.5
2017-Dec-09 03:12N 37°15' W 123°01'315.4
2017-Dec-09 03:00N 37°18' W 123°02'714.7
2017-Dec-09 02:30N 37°25' W 123°06'713.9
2017-Dec-09 02:01N 37°32' W 123°08'714.5
2017-Dec-09 01:30N 37°36' W 123°01'715.0
2017-Dec-09 01:00N 37°40' W 122°53'714.3
2017-Dec-09 00:30N 37°44' W 122°45'510.0
2017-Dec-09 00:01N 37°46' W 122°40'714.2
2017-Dec-08 23:30N 37°48' W 122°31'611.7
2017-Dec-08 23:00N 37°51' W 122°25'3 6.4
2017-Dec-08 22:30N 37°54' W 122°25'1 2.3
2017-Dec-08 21:58N 37°56' W 122°25'0 0.0
2017-Dec-08 21:28N 37°56' W 122°25'0 0.0
2017-Dec-08 20:55N 37°56' W 122°25'0 0.0
2017-Dec-08 20:30N 37°56' W 122°25'0 0.0
2017-Dec-08 20:00N 37°56' W 122°25'0 0.0
2017-Dec-08 19:28N 37°56' W 122°25'0 0.0
2017-Dec-08 18:58N 37°56' W 122°25'0 0.0
2017-Dec-08 18:28N 37°56' W 122°25'0 0.0
2017-Dec-08 17:58N 37°56' W 122°25'0 0.0
2017-Dec-08 17:25N 37°56' W 122°25'0 0.0
2017-Dec-08 16:46N 37°56' W 122°25'0 0.0
2017-Dec-08 16:22N 37°56' W 122°25'0 0.0
2017-Dec-08 15:55N 37°56' W 122°25'0 0.0
2017-Dec-08 15:22N 37°56' W 122°25'0 0.0
2017-Dec-08 14:58N 37°56' W 122°25'0 0.0
2017-Dec-08 14:28N 37°56' W 122°25'0 0.0
2017-Dec-08 13:55N 37°56' W 122°25'0 0.0
2017-Dec-08 13:28N 37°56' W 122°25'0 0.0
2017-Dec-08 12:58N 37°56' W 122°25'0 0.0
2017-Dec-08 12:25N 37°56' W 122°25'0 0.0
2017-Dec-08 11:58N 37°56' W 122°25'0 0.0
2017-Dec-08 11:28N 37°56' W 122°25'0 0.0
2017-Dec-08 10:55N 37°56' W 122°25'0 0.0
2017-Dec-08 10:28N 37°56' W 122°25'0 0.0
2017-Dec-08 09:58N 37°56' W 122°25'0 0.0
2017-Dec-08 09:28N 37°56' W 122°25'0 0.0
2017-Dec-08 08:58N 37°56' W 122°25'0 0.0
2017-Dec-08 08:28N 37°56' W 122°25'0 0.0
2017-Dec-08 07:58N 37°56' W 122°25'0 0.0
2017-Dec-08 07:19N 37°56' W 122°25'0 0.0
2017-Dec-08 06:55N 37°56' W 122°25'0 0.0
2017-Dec-08 06:25N 37°56' W 122°25'0 0.0
2017-Dec-08 05:55N 37°56' W 122°25'0 0.0
2017-Dec-08 05:25N 37°56' W 122°25'0 0.0
2017-Dec-08 04:58N 37°56' W 122°25'0 0.0
2017-Dec-08 04:28N 37°56' W 122°25'0 0.0
2017-Dec-08 03:58N 37°56' W 122°25'0 0.0
2017-Dec-08 03:28N 37°56' W 122°25'0 0.0
2017-Dec-08 02:58N 37°56' W 122°25'0 0.0
2017-Dec-08 02:22N 37°56' W 122°25'0 0.0
2017-Dec-08 01:55N 37°56' W 122°25'0 0.0
2017-Dec-08 01:28N 37°56' W 122°25'0 0.0
2017-Dec-08 00:58N 37°56' W 122°25'0 0.0
2017-Dec-08 00:28N 37°56' W 122°25'0 0.0
2017-Dec-07 23:58N 37°56' W 122°25'0 0.0
2017-Dec-07 23:28N 37°56' W 122°25'0 0.0
2017-Dec-07 22:52N 37°56' W 122°25'0 0.0
2017-Dec-07 22:25N 37°56' W 122°25'0 0.0
2017-Dec-07 21:58N 37°56' W 122°25'0 0.0
2017-Dec-07 21:28N 37°56' W 122°25'0 0.0
2017-Dec-07 21:00N 37°56' W 122°25'0 0.2
2017-Dec-07 20:30N 37°56' W 122°25'2 4.3
2017-Dec-07 20:00N 37°53' W 122°25'3 6.6
2017-Dec-07 19:30N 37°50' W 122°27'4 8.8
2017-Dec-07 19:00N 37°48' W 122°31'612.6
2017-Dec-07 18:30N 37°46' W 122°39'5 8.8
2017-Dec-07 17:59N 37°43' W 122°43'3 6.8
2017-Dec-07 17:30N 37°41' W 122°47'510.9
2017-Dec-07 17:00N 37°38' W 122°53'510.5
2017-Dec-07 16:30N 37°35' W 122°58'510.6
2017-Dec-07 16:00N 37°32' W 123°03'510.5
2017-Dec-07 15:30N 37°29' W 123°09'510.4
2017-Dec-07 15:00N 37°26' W 123°14'510.3
2017-Dec-07 14:30N 37°23' W 123°20'510.2
2017-Dec-07 14:00N 37°20' W 123°25'5 9.2
2017-Dec-07 13:30N 37°16' W 123°27'510.4
2017-Dec-07 13:00N 37°11' W 123°27'510.3
2017-Dec-07 12:30N 37°06' W 123°27'510.3
2017-Dec-07 12:00N 37°00' W 123°27'510.4
2017-Dec-07 11:30N 36°56' W 123°24'510.7
2017-Dec-07 11:00N 36°51' W 123°21'510.7
2017-Dec-07 10:30N 36°46' W 123°18'510.8
2017-Dec-07 10:00N 36°42' W 123°15'510.7
2017-Dec-07 09:30N 36°37' W 123°11'510.7
2017-Dec-07 09:00N 36°32' W 123°09'510.6
2017-Dec-07 08:30N 36°27' W 123°06'510.5
2017-Dec-07 08:00N 36°22' W 123°03'510.6
2017-Dec-07 07:30N 36°18' W 123°01'510.4
2017-Dec-07 07:00N 36°13' W 122°57'4 7.1
2017-Dec-07 06:30N 36°10' W 122°54'2 4.3
2017-Dec-07 06:00N 36°09' W 122°53'611.4
2017-Dec-07 05:30N 36°04' W 122°50'612.5
2017-Dec-07 05:00N 35°58' W 122°46'612.6
2017-Dec-07 04:30N 35°53' W 122°42'612.7
2017-Dec-07 04:00N 35°47' W 122°39'612.5
2017-Dec-07 03:30N 35°41' W 122°35'612.3
2017-Dec-07 03:00N 35°36' W 122°32'612.4
2017-Dec-07 02:30N 35°30' W 122°29'612.6
2017-Dec-07 02:00N 35°24' W 122°27'612.5
2017-Dec-07 01:30N 35°18' W 122°25'5 9.1
2017-Dec-07 01:00N 35°14' W 122°22'510.6
2017-Dec-07 00:30N 35°13' W 122°16'612.7
2017-Dec-07 00:00N 35°07' W 122°12'612.3
2017-Dec-06 23:30N 35°02' W 122°08'4 7.3
2017-Dec-06 23:00N 34°58' W 122°06'611.6
2017-Dec-06 22:30N 34°53' W 122°03'713.2
2017-Dec-06 22:00N 34°48' W 121°58'713.4
2017-Dec-06 21:30N 34°42' W 121°55'713.4
2017-Dec-06 21:00N 34°36' W 121°51'  
2017-Dec-04 07:06N 33°42' W 118°08'0 0.0
2017-Dec-04 05:53N 33°42' W 118°08'0 0.0
2017-Dec-04 03:11N 33°42' W 118°08'0 0.0
2017-Dec-04 02:06N 33°42' W 118°08'0 0.0
2017-Dec-04 02:00N 33°42' W 118°08'0 0.1
2017-Dec-04 01:24N 33°42' W 118°08'0 0.1
2017-Dec-04 01:00N 33°42' W 118°08'0 0.0
2017-Dec-04 00:29N 33°42' W 118°08'0 0.0
2017-Dec-04 00:00N 33°42' W 118°08'0 0.1
2017-Dec-03 23:02N 33°42' W 118°08'0 0.0
2017-Dec-03 22:59N 33°42' W 118°08'0 0.0
2017-Dec-03 22:26N 33°42' W 118°08'0 0.0
2017-Dec-03 11:18N 33°42' W 118°08'0 0.0
2017-Dec-03 10:12N 33°42' W 118°08'0 0.1
2017-Dec-03 09:44N 33°42' W 118°08'0 0.2
2017-Dec-03 09:26N 33°42' W 118°08'0 0.0
2017-Dec-03 08:54N 33°42' W 118°08'0 0.1
2017-Dec-03 08:29N 33°42' W 118°08'0 0.0
2017-Dec-03 07:59N 33°42' W 118°08'0 0.1
2017-Dec-03 07:30N 33°42' W 118°08'0 0.0
2017-Dec-03 07:00N 33°42' W 118°08'0 0.1
2017-Dec-03 06:29N 33°42' W 118°08'0 0.0
2017-Dec-03 05:54N 33°42' W 118°08'0 0.0
2017-Dec-03 05:30N 33°42' W 118°08'0 0.0
2017-Dec-03 05:00N 33°42' W 118°08'0 0.0
2017-Dec-03 04:30N 33°42' W 118°08'0 0.1
2017-Dec-03 04:00N 33°42' W 118°08'0 0.1
2017-Dec-03 03:30N 33°42' W 118°08'0 0.1
2017-Dec-03 03:00N 33°42' W 118°08'0 0.0
2017-Dec-03 02:30N 33°42' W 118°08'0 0.1
2017-Dec-03 01:56N 33°42' W 118°08'0 0.0
2017-Dec-03 01:27N 33°42' W 118°08'0 0.0
2017-Dec-02 22:10N 33°42' W 118°08'0 0.0
2017-Dec-02 21:58N 33°42' W 118°08'0 0.0
2017-Dec-02 21:28N 33°42' W 118°08'0 0.0
2017-Dec-02 20:58N 33°42' W 118°08'0 0.0
2017-Dec-02 20:28N 33°42' W 118°08'0 0.0
2017-Dec-02 19:58N 33°42' W 118°08'0 0.0
2017-Dec-02 19:28N 33°42' W 118°08'0 0.0
2017-Dec-02 17:55N 33°42' W 118°08'0 0.1
2017-Dec-02 16:43N 33°42' W 118°08'0 0.2
2017-Dec-02 16:28N 33°42' W 118°08'0 0.0
2017-Dec-02 15:55N 33°42' W 118°08'0 0.1
2017-Dec-02 15:28N 33°42' W 118°08'0 0.0
2017-Dec-02 14:58N 33°42' W 118°08'0 0.1
2017-Dec-02 14:28N 33°42' W 118°08'0 0.1
2017-Dec-02 13:52N 33°42' W 118°08'0 0.1
2017-Dec-02 13:28N 33°42' W 118°08'0 0.1
2017-Dec-02 12:58N 33°42' W 118°08'0 0.0
2017-Dec-02 12:28N 33°42' W 118°08'0 0.1
2017-Dec-02 11:58N 33°42' W 118°08'0 0.1
2017-Dec-02 11:25N 33°42' W 118°08'0 0.1
2017-Dec-02 10:55N 33°42' W 118°08'0 0.0
2017-Dec-02 10:30N 33°42' W 118°08'0 0.0
2017-Dec-02 10:01N 33°42' W 118°08'0 0.0
2017-Dec-02 09:30N 33°42' W 118°08'0 0.1
2017-Dec-02 08:59N 33°42' W 118°08'0 0.0
2017-Dec-02 08:29N 33°42' W 118°08'0 0.0
2017-Dec-02 07:59N 33°42' W 118°08'0 0.0
2017-Dec-02 07:29N 33°42' W 118°08'0 0.0
2017-Dec-02 06:59N 33°42' W 118°08'0 0.0
2017-Dec-02 06:29N 33°42' W 118°08'0 0.0
2017-Dec-02 05:59N 33°42' W 118°08'0 0.0
2017-Dec-02 05:17N 33°42' W 118°08'0 0.0
2017-Dec-02 04:59N 33°42' W 118°08'0 0.0
2017-Dec-02 04:17N 33°42' W 118°08'0 0.0
2017-Dec-02 03:47N 33°42' W 118°08'0 0.1
2017-Dec-02 03:20N 33°42' W 118°08'0 0.0
2017-Dec-02 02:26N 33°42' W 118°08'0 0.0
2017-Dec-02 01:53N 33°42' W 118°08'0 0.0
2017-Dec-02 01:20N 33°42' W 118°08'0 0.0
2017-Dec-02 00:52N 33°42' W 118°08'0 0.0
2017-Dec-02 00:29N 33°42' W 118°08'0 0.0
2017-Dec-02 00:00N 33°42' W 118°08'0 0.0
2017-Dec-01 23:30N 33°42' W 118°08'0 0.0
2017-Dec-01 23:00N 33°42' W 118°08'0 0.0
2017-Dec-01 22:27N 33°42' W 118°08'0 0.0
2017-Dec-01 20:15N 33°42' W 118°08'0 0.0
2017-Dec-01 19:57N 33°42' W 118°08'0 0.0
2017-Dec-01 17:15N 33°42' W 118°08'  
Track history (hours):
 
Tides and Currents Weather Stations Pressure Air Temp Water Temp Dewpoint Dewpoint Depression Visibility Wind Speed Wind Dir Waves Ship Positions

Polaris Voyager

Last reported at 2017-Dec-11 17:00 UTC. Time now 2017-Dec-13 14:58 UTC.
Position N 33°21' W 119°15'.

Length 276 m; draft 11.3 m.

Type: Ship (hazmat cat A). MMSI: 311000112.

Date/timePositionNaut miles runAvg speedWind from/ knotsBaromVisibWave heightAir tempDewpointWater temp
2017-Dec-11 17:00N 33°21' W 119°15'815.5
2017-Dec-11 16:30N 33°16' W 119°09'815.2
2017-Dec-11 16:00N 33°15' W 118°59'713.3
2017-Dec-11 15:30N 33°14' W 118°51'611.8
2017-Dec-11 15:00N 33°14' W 118°44'611.7
2017-Dec-11 14:30N 33°13' W 118°38'712.0
2017-Dec-11 13:56N 33°10' W 118°30'1011.9
2017-Dec-11 13:05N 33°06' W 118°19'112.1
2017-Dec-11 12:59N 33°05' W 118°18'611.9
2017-Dec-11 12:28N 33°06' W 118°10'511.8
2017-Dec-11 12:00N 33°07' W 118°04'611.9
2017-Dec-11 11:30N 33°08' W 117°57'3 6.6
2017-Dec-11 11:00N 33°09' W 117°53'1 1.1
2017-Dec-11 10:30N 33°08' W 117°53'1 1.8
2017-Dec-11 10:00N 33°07' W 117°52'1 1.8
2017-Dec-11 09:30N 33°07' W 117°51'1 1.8
2017-Dec-11 09:00N 33°06' W 117°51'1 1.5
2017-Dec-11 08:30N 33°05' W 117°50'1 1.4
2017-Dec-11 08:00N 33°05' W 117°50'1 1.5
2017-Dec-11 07:30N 33°04' W 117°50'1 1.5
2017-Dec-11 07:00N 33°03' W 117°49'1 1.4
2017-Dec-11 06:30N 33°03' W 117°48'1 1.4
2017-Dec-11 06:00N 33°02' W 117°48'1 1.5
2017-Dec-11 05:30N 33°02' W 117°47'1 1.7
2017-Dec-11 05:00N 33°01' W 117°47'1 1.8
2017-Dec-11 04:30N 33°00' W 117°46'1 1.1
2017-Dec-11 04:00N 32°60' W 117°46'0 0.9
2017-Dec-11 03:30N 32°60' W 117°45'0 1.0
2017-Dec-11 03:00N 32°59' W 117°45'0 1.0
2017-Dec-11 02:30N 32°59' W 117°45'0 1.0
2017-Dec-11 02:00N 32°58' W 117°44'0 0.9
2017-Dec-11 01:30N 32°58' W 117°44'0 0.5
2017-Dec-11 01:00N 32°58' W 117°44'0 0.5
2017-Dec-11 00:30N 32°58' W 117°44'0 0.5
2017-Dec-11 00:00N 32°57' W 117°44'0 0.6
2017-Dec-10 23:30N 32°57' W 117°44'0 0.7
2017-Dec-10 23:00N 32°57' W 117°44'0 0.7
2017-Dec-10 22:30N 32°56' W 117°43'0 0.6
2017-Dec-10 22:00N 32°56' W 117°43'0 0.9
2017-Dec-10 21:30N 32°56' W 117°43'1 1.6
2017-Dec-10 21:00N 32°55' W 117°43'1 1.5
2017-Dec-10 20:30N 32°55' W 117°43'1 1.2
2017-Dec-10 20:00N 32°55' W 117°44'1 1.6
2017-Dec-10 19:30N 32°55' W 117°45'1 1.3
2017-Dec-10 19:00N 32°55' W 117°46'0 0.9
2017-Dec-10 18:30N 32°55' W 117°46'0 0.7
2017-Dec-10 18:00N 32°55' W 117°47'0 0.6
2017-Dec-10 17:30N 32°55' W 117°47'0 0.4
2017-Dec-10 17:00N 32°56' W 117°47'0 0.6
2017-Dec-10 16:30N 32°56' W 117°47'0 0.6
2017-Dec-10 16:00N 32°56' W 117°47'0 0.6
2017-Dec-10 15:30N 32°56' W 117°48'0 0.5
2017-Dec-10 15:00N 32°56' W 117°48'0 0.5
2017-Dec-10 14:30N 32°57' W 117°48'0 0.5
2017-Dec-10 14:00N 32°57' W 117°48'0 0.6
2017-Dec-10 13:30N 32°57' W 117°48'1 1.1
2017-Dec-10 13:00N 32°58' W 117°49'1 2.3
2017-Dec-10 12:30N 32°58' W 117°50'1 2.8
2017-Dec-10 12:00N 32°59' W 117°51'2 3.8
2017-Dec-10 11:30N 33°01' W 117°52'3 5.3
2017-Dec-10 11:00N 33°03' W 117°53'2 4.9
2017-Dec-10 10:30N 33°06' W 117°55'2 5.0
2017-Dec-10 10:00N 33°08' W 117°57'3 5.6
2017-Dec-10 09:30N 33°10' W 117°59'2 3.8
2017-Dec-10 09:00N 33°11' W 118°01'0 0.6
2017-Dec-10 08:30N 33°11' W 118°00'0 0.3
2017-Dec-10 08:00N 33°11' W 118°00'3 5.1
2017-Dec-10 07:30N 33°13' W 118°02'611.7
2017-Dec-10 07:00N 33°17' W 118°07'611.7
2017-Dec-10 06:30N 33°22' W 118°11'1611.7
2017-Dec-10 05:08N 33°33' W 118°25'211.9
2017-Dec-10 04:57N 33°34' W 118°27'611.5
2017-Dec-10 04:28N 33°36' W 118°33'611.8
2017-Dec-10 04:00N 33°36' W 118°40'611.8
2017-Dec-10 03:30N 33°37' W 118°47'611.6
2017-Dec-10 03:00N 33°37' W 118°54'611.7
2017-Dec-10 02:30N 33°38' W 119°01'612.1
2017-Dec-10 02:00N 33°38' W 119°08'815.7
2017-Dec-10 01:29N 33°38' W 119°18'714.5
2017-Dec-10 01:00N 33°38' W 119°26'510.1
2017-Dec-10 00:31N 33°37' W 119°32'714.8
2017-Dec-10 00:01N 33°37' W 119°41'815.1
2017-Dec-09 23:30N 33°37' W 119°50'714.8
2017-Dec-09 23:01N 33°36' W 119°59'714.5
2017-Dec-09 22:30N 33°36' W 120°08'714.5
2017-Dec-09 22:00N 33°39' W 120°16'714.8
2017-Dec-09 21:29N 33°43' W 120°24'814.8
2017-Dec-09 20:56N 33°47' W 120°33'614.6
2017-Dec-09 20:30N 33°50' W 120°39'714.8
2017-Dec-09 20:01N 33°54' W 120°46'612.1
2017-Dec-09 19:29N 33°59' W 120°52'2 4.8
2017-Dec-09 19:00N 34°01' W 120°53'3 6.0
2017-Dec-09 18:28N 34°04' W 120°54'1 1.3
2017-Dec-09 18:00N 34°03' W 120°55'4 9.0
2017-Dec-09 17:30N 34°07' W 120°58'714.5
2017-Dec-09 17:00N 34°13' W 121°02'714.9
2017-Dec-09 16:30N 34°19' W 121°07'714.8
2017-Dec-09 16:00N 34°25' W 121°13'815.0
2017-Dec-09 15:30N 34°32' W 121°16'714.9
2017-Dec-09 15:00N 34°39' W 121°21'815.4
2017-Dec-09 14:30N 34°45' W 121°25'815.2
2017-Dec-09 14:00N 34°52' W 121°30'815.1
2017-Dec-09 13:30N 34°58' W 121°35'714.6
2017-Dec-09 13:00N 35°05' W 121°39'714.8
2017-Dec-09 12:30N 35°11' W 121°44'714.8
2017-Dec-09 12:00N 35°17' W 121°49'714.8
2017-Dec-09 11:30N 35°24' W 121°53'714.8
2017-Dec-09 11:00N 35°30' W 121°58'714.7
2017-Dec-09 10:30N 35°36' W 122°02'714.7
2017-Dec-09 10:00N 35°43' W 122°07'714.3
2017-Dec-09 09:31N 35°49' W 122°11'714.2
2017-Dec-09 09:01N 35°55' W 122°16'714.5
2017-Dec-09 08:30N 36°01' W 122°21'714.8
2017-Dec-09 08:00N 36°08' W 122°25'815.1
2017-Dec-09 07:30N 36°14' W 122°30'815.3
2017-Dec-09 07:00N 36°21' W 122°34'815.3
2017-Dec-09 06:30N 36°28' W 122°37'815.2
2017-Dec-09 06:00N 36°35' W 122°41'815.3
2017-Dec-09 05:30N 36°42' W 122°45'815.4
2017-Dec-09 05:00N 36°49' W 122°48'815.4
2017-Dec-09 04:30N 36°56' W 122°52'815.6
2017-Dec-09 04:00N 37°04' W 122°55'1215.5
2017-Dec-09 03:12N 37°15' W 123°01'315.4
2017-Dec-09 03:00N 37°18' W 123°02'714.7
2017-Dec-09 02:30N 37°25' W 123°06'713.9
2017-Dec-09 02:01N 37°32' W 123°08'714.5
2017-Dec-09 01:30N 37°36' W 123°01'715.0
2017-Dec-09 01:00N 37°40' W 122°53'714.3
2017-Dec-09 00:30N 37°44' W 122°45'510.0
2017-Dec-09 00:01N 37°46' W 122°40'714.2
2017-Dec-08 23:30N 37°48' W 122°31'611.7
2017-Dec-08 23:00N 37°51' W 122°25'3 6.4
2017-Dec-08 22:30N 37°54' W 122°25'1 2.3
2017-Dec-08 21:58N 37°56' W 122°25'0 0.0
2017-Dec-08 21:28N 37°56' W 122°25'0 0.0
2017-Dec-08 20:55N 37°56' W 122°25'0 0.0
2017-Dec-08 20:30N 37°56' W 122°25'0 0.0
2017-Dec-08 20:00N 37°56' W 122°25'0 0.0
2017-Dec-08 19:28N 37°56' W 122°25'0 0.0
2017-Dec-08 18:58N 37°56' W 122°25'0 0.0
2017-Dec-08 18:28N 37°56' W 122°25'0 0.0
2017-Dec-08 17:58N 37°56' W 122°25'0 0.0
2017-Dec-08 17:25N 37°56' W 122°25'0 0.0
2017-Dec-08 16:46N 37°56' W 122°25'0 0.0
2017-Dec-08 16:22N 37°56' W 122°25'0 0.0
2017-Dec-08 15:55N 37°56' W 122°25'0 0.0
2017-Dec-08 15:22N 37°56' W 122°25'0 0.0
2017-Dec-08 14:58N 37°56' W 122°25'0 0.0
2017-Dec-08 14:28N 37°56' W 122°25'0 0.0
2017-Dec-08 13:55N 37°56' W 122°25'0 0.0
2017-Dec-08 13:28N 37°56' W 122°25'0 0.0
2017-Dec-08 12:58N 37°56' W 122°25'0 0.0
2017-Dec-08 12:25N 37°56' W 122°25'0 0.0
2017-Dec-08 11:58N 37°56' W 122°25'0 0.0
2017-Dec-08 11:28N 37°56' W 122°25'0 0.0
2017-Dec-08 10:55N 37°56' W 122°25'0 0.0
2017-Dec-08 10:28N 37°56' W 122°25'0 0.0
2017-Dec-08 09:58N 37°56' W 122°25'0 0.0
2017-Dec-08 09:28N 37°56' W 122°25'0 0.0
2017-Dec-08 08:58N 37°56' W 122°25'0 0.0
2017-Dec-08 08:28N 37°56' W 122°25'0 0.0
2017-Dec-08 07:58N 37°56' W 122°25'0 0.0
2017-Dec-08 07:19N 37°56' W 122°25'0 0.0
2017-Dec-08 06:55N 37°56' W 122°25'0 0.0
2017-Dec-08 06:25N 37°56' W 122°25'0 0.0
2017-Dec-08 05:55N 37°56' W 122°25'0 0.0
2017-Dec-08 05:25N 37°56' W 122°25'0 0.0
2017-Dec-08 04:58N 37°56' W 122°25'0 0.0
2017-Dec-08 04:28N 37°56' W 122°25'0 0.0
2017-Dec-08 03:58N 37°56' W 122°25'0 0.0
2017-Dec-08 03:28N 37°56' W 122°25'0 0.0
2017-Dec-08 02:58N 37°56' W 122°25'0 0.0
2017-Dec-08 02:22N 37°56' W 122°25'0 0.0
2017-Dec-08 01:55N 37°56' W 122°25'0 0.0
2017-Dec-08 01:28N 37°56' W 122°25'0 0.0
2017-Dec-08 00:58N 37°56' W 122°25'0 0.0
2017-Dec-08 00:28N 37°56' W 122°25'0 0.0
2017-Dec-07 23:58N 37°56' W 122°25'0 0.0
2017-Dec-07 23:28N 37°56' W 122°25'0 0.0
2017-Dec-07 22:52N 37°56' W 122°25'0 0.0
2017-Dec-07 22:25N 37°56' W 122°25'0 0.0
2017-Dec-07 21:58N 37°56' W 122°25'0 0.0
2017-Dec-07 21:28N 37°56' W 122°25'0 0.0
2017-Dec-07 21:00N 37°56' W 122°25'0 0.2
2017-Dec-07 20:30N 37°56' W 122°25'2 4.3
2017-Dec-07 20:00N 37°53' W 122°25'3 6.6
2017-Dec-07 19:30N 37°50' W 122°27'4 8.8
2017-Dec-07 19:00N 37°48' W 122°31'612.6
2017-Dec-07 18:30N 37°46' W 122°39'5 8.8
2017-Dec-07 17:59N 37°43' W 122°43'3 6.8
2017-Dec-07 17:30N 37°41' W 122°47'510.9
2017-Dec-07 17:00N 37°38' W 122°53'510.5
2017-Dec-07 16:30N 37°35' W 122°58'510.6
2017-Dec-07 16:00N 37°32' W 123°03'510.5
2017-Dec-07 15:30N 37°29' W 123°09'510.4
2017-Dec-07 15:00N 37°26' W 123°14'510.3
2017-Dec-07 14:30N 37°23' W 123°20'510.2
2017-Dec-07 14:00N 37°20' W 123°25'5 9.2
2017-Dec-07 13:30N 37°16' W 123°27'510.4
2017-Dec-07 13:00N 37°11' W 123°27'510.3
2017-Dec-07 12:30N 37°06' W 123°27'510.3
2017-Dec-07 12:00N 37°00' W 123°27'510.4
2017-Dec-07 11:30N 36°56' W 123°24'510.7
2017-Dec-07 11:00N 36°51' W 123°21'510.7
2017-Dec-07 10:30N 36°46' W 123°18'510.8
2017-Dec-07 10:00N 36°42' W 123°15'510.7
2017-Dec-07 09:30N 36°37' W 123°11'510.7
2017-Dec-07 09:00N 36°32' W 123°09'510.6
2017-Dec-07 08:30N 36°27' W 123°06'510.5
2017-Dec-07 08:00N 36°22' W 123°03'510.6
2017-Dec-07 07:30N 36°18' W 123°01'510.4
2017-Dec-07 07:00N 36°13' W 122°57'4 7.1
2017-Dec-07 06:30N 36°10' W 122°54'2 4.3
2017-Dec-07 06:00N 36°09' W 122°53'611.4
2017-Dec-07 05:30N 36°04' W 122°50'612.5
2017-Dec-07 05:00N 35°58' W 122°46'612.6
2017-Dec-07 04:30N 35°53' W 122°42'612.7
2017-Dec-07 04:00N 35°47' W 122°39'612.5
2017-Dec-07 03:30N 35°41' W 122°35'612.3
2017-Dec-07 03:00N 35°36' W 122°32'612.4
2017-Dec-07 02:30N 35°30' W 122°29'612.6
2017-Dec-07 02:00N 35°24' W 122°27'612.5
2017-Dec-07 01:30N 35°18' W 122°25'5 9.1
2017-Dec-07 01:00N 35°14' W 122°22'510.6
2017-Dec-07 00:30N 35°13' W 122°16'612.7
2017-Dec-07 00:00N 35°07' W 122°12'612.3
2017-Dec-06 23:30N 35°02' W 122°08'4 7.3
2017-Dec-06 23:00N 34°58' W 122°06'611.6
2017-Dec-06 22:30N 34°53' W 122°03'713.2
2017-Dec-06 22:00N 34°48' W 121°58'713.4
2017-Dec-06 21:30N 34°42' W 121°55'713.4
2017-Dec-06 21:00N 34°36' W 121°51'  
2017-Dec-04 07:06N 33°42' W 118°08'0 0.0
2017-Dec-04 05:53N 33°42' W 118°08'0 0.0
2017-Dec-04 03:11N 33°42' W 118°08'0 0.0
2017-Dec-04 02:06N 33°42' W 118°08'0 0.0
2017-Dec-04 02:00N 33°42' W 118°08'0 0.1
2017-Dec-04 01:24N 33°42' W 118°08'0 0.1
2017-Dec-04 01:00N 33°42' W 118°08'0 0.0
2017-Dec-04 00:29N 33°42' W 118°08'0 0.0
2017-Dec-04 00:00N 33°42' W 118°08'0 0.1
2017-Dec-03 23:02N 33°42' W 118°08'0 0.0
2017-Dec-03 22:59N 33°42' W 118°08'0 0.0
2017-Dec-03 22:26N 33°42' W 118°08'0 0.0
2017-Dec-03 11:18N 33°42' W 118°08'0 0.0
2017-Dec-03 10:12N 33°42' W 118°08'0 0.1
2017-Dec-03 09:44N 33°42' W 118°08'0 0.2
2017-Dec-03 09:26N 33°42' W 118°08'0 0.0
2017-Dec-03 08:54N 33°42' W 118°08'0 0.1
2017-Dec-03 08:29N 33°42' W 118°08'0 0.0
2017-Dec-03 07:59N 33°42' W 118°08'0 0.1
2017-Dec-03 07:30N 33°42' W 118°08'0 0.0
2017-Dec-03 07:00N 33°42' W 118°08'0 0.1
2017-Dec-03 06:29N 33°42' W 118°08'0 0.0
2017-Dec-03 05:54N 33°42' W 118°08'0 0.0
2017-Dec-03 05:30N 33°42' W 118°08'0 0.0
2017-Dec-03 05:00N 33°42' W 118°08'0 0.0
2017-Dec-03 04:30N 33°42' W 118°08'0 0.1
2017-Dec-03 04:00N 33°42' W 118°08'0 0.1
2017-Dec-03 03:30N 33°42' W 118°08'0 0.1
2017-Dec-03 03:00N 33°42' W 118°08'0 0.0
2017-Dec-03 02:30N 33°42' W 118°08'0 0.1
2017-Dec-03 01:56N 33°42' W 118°08'0 0.0
2017-Dec-03 01:27N 33°42' W 118°08'0 0.0
2017-Dec-02 22:10N 33°42' W 118°08'0 0.0
2017-Dec-02 21:58N 33°42' W 118°08'0 0.0
2017-Dec-02 21:28N 33°42' W 118°08'0 0.0
2017-Dec-02 20:58N 33°42' W 118°08'0 0.0
2017-Dec-02 20:28N 33°42' W 118°08'0 0.0
2017-Dec-02 19:58N 33°42' W 118°08'0 0.0
2017-Dec-02 19:28N 33°42' W 118°08'0 0.0
2017-Dec-02 17:55N 33°42' W 118°08'0 0.1
2017-Dec-02 16:43N 33°42' W 118°08'0 0.2
2017-Dec-02 16:28N 33°42' W 118°08'0 0.0
2017-Dec-02 15:55N 33°42' W 118°08'0 0.1
2017-Dec-02 15:28N 33°42' W 118°08'0 0.0
2017-Dec-02 14:58N 33°42' W 118°08'0 0.1
2017-Dec-02 14:28N 33°42' W 118°08'0 0.1
2017-Dec-02 13:52N 33°42' W 118°08'0 0.1
2017-Dec-02 13:28N 33°42' W 118°08'0 0.1
2017-Dec-02 12:58N 33°42' W 118°08'0 0.0
2017-Dec-02 12:28N 33°42' W 118°08'0 0.1
2017-Dec-02 11:58N 33°42' W 118°08'0 0.1
2017-Dec-02 11:25N 33°42' W 118°08'0 0.1
2017-Dec-02 10:55N 33°42' W 118°08'0 0.0
2017-Dec-02 10:30N 33°42' W 118°08'0 0.0
2017-Dec-02 10:01N 33°42' W 118°08'0 0.0
2017-Dec-02 09:30N 33°42' W 118°08'0 0.1
2017-Dec-02 08:59N 33°42' W 118°08'0 0.0
2017-Dec-02 08:29N 33°42' W 118°08'0 0.0
2017-Dec-02 07:59N 33°42' W 118°08'0 0.0
2017-Dec-02 07:29N 33°42' W 118°08'0 0.0
2017-Dec-02 06:59N 33°42' W 118°08'0 0.0
2017-Dec-02 06:29N 33°42' W 118°08'0 0.0
2017-Dec-02 05:59N 33°42' W 118°08'0 0.0
2017-Dec-02 05:17N 33°42' W 118°08'0 0.0
2017-Dec-02 04:59N 33°42' W 118°08'0 0.0
2017-Dec-02 04:17N 33°42' W 118°08'0 0.0
2017-Dec-02 03:47N 33°42' W 118°08'0 0.1
2017-Dec-02 03:20N 33°42' W 118°08'0 0.0
2017-Dec-02 02:26N 33°42' W 118°08'0 0.0
2017-Dec-02 01:53N 33°42' W 118°08'0 0.0
2017-Dec-02 01:20N 33°42' W 118°08'0 0.0
2017-Dec-02 00:52N 33°42' W 118°08'0 0.0
2017-Dec-02 00:29N 33°42' W 118°08'0 0.0
2017-Dec-02 00:00N 33°42' W 118°08'0 0.0
2017-Dec-01 23:30N 33°42' W 118°08'0 0.0
2017-Dec-01 23:00N 33°42' W 118°08'0 0.0
2017-Dec-01 22:27N 33°42' W 118°08'0 0.0
2017-Dec-01 20:15N 33°42' W 118°08'0 0.0
2017-Dec-01 19:57N 33°42' W 118°08'0 0.0
2017-Dec-01 17:15N 33°42' W 118°08'  

Dump ship's entire track history